Terminal Aerodrome Forecast
Issued by NWS Twin Cities, MN

Home | Current Version | Previous Version | Text Only | Print | Product List | Glossary Off
Versions: 1 2 3 4 5 6 7 8 9 10 11 12 13 14 15 16 17 18 19 20 21 22 23 24 25 26 27 28

000
FTUS43 KMPX 280520
TAFMSP
TAF
KMSP 280520Z 2806/2912 13010KT P6SM SCT060
     FM281000 14012KT P6SM VCSH BKN060
      TEMPO 2812/2815 2SM -TSRA BR OVC025CB
     FM281600 15016G24KT P6SM -SHRA SCT025 OVC035
     FM281900 18017G25KT P6SM VCSH BKN035 OVC050
     FM290200 25010KT P6SM BKN060=

USA.gov is the U.S. government's official web portal to all federal, state and local government web resources and services.